sensor_id;sensor_type;location;lat;lon;timestamp;P1;durP1;ratioP1;P2;durP2;ratioP2
33802;SDS011;20110;53.120;5.786;2023-04-15T00:01:26;14.45;;;8.00;;
33802;SDS011;20110;53.120;5.786;2023-04-15T00:03:53;24.52;;;8.98;;
33802;SDS011;20110;53.120;5.786;2023-04-15T00:06:20;18.63;;;8.07;;
33802;SDS011;20110;53.120;5.786;2023-04-15T00:08:47;16.65;;;8.00;;
33802;SDS011;20110;53.120;5.786;2023-04-15T00:11:14;17.67;;;7.63;;
33802;SDS011;20110;53.120;5.786;2023-04-15T00:13:42;24.63;;;8.30;;
33802;SDS011;20110;53.120;5.786;2023-04-15T00:16:08;24.15;;;8.70;;
33802;SDS011;20110;53.120;5.786;2023-04-15T00:18:35;18.42;;;8.45;;
33802;SDS011;20110;53.120;5.786;2023-04-15T00:21:02;24.58;;;9.07;;
33802;SDS011;20110;53.120;5.786;2023-04-15T00:23:29;21.50;;;8.85;;
33802;SDS011;20110;53.120;5.786;2023-04-15T00:25:56;15.82;;;8.65;;
33802;SDS011;20110;53.120;5.786;2023-04-15T00:28:22;20.23;;;8.52;;
33802;SDS011;20110;53.120;5.786;2023-04-15T00:30:48;26.40;;;10.15;;
33802;SDS011;20110;53.120;5.786;2023-04-15T00:33:14;22.00;;;9.45;;
33802;SDS011;20110;53.120;5.786;2023-04-15T00:35:44;18.52;;;8.98;;
33802;SDS011;20110;53.120;5.786;2023-04-15T00:38:10;22.10;;;8.73;;
33802;SDS011;20110;53.120;5.786;2023-04-15T00:40:36;15.88;;;8.27;;
33802;SDS011;20110;53.120;5.786;2023-04-15T00:43:02;17.42;;;9.50;;
33802;SDS011;20110;53.120;5.786;2023-04-15T00:45:28;16.00;;;9.10;;
33802;SDS011;20110;53.120;5.786;2023-04-15T00:47:54;20.35;;;9.73;;
33802;SDS011;20110;53.120;5.786;2023-04-15T00:50:21;17.27;;;8.32;;
33802;SDS011;20110;53.120;5.786;2023-04-15T00:52:47;18.80;;;8.68;;
33802;SDS011;20110;53.120;5.786;2023-04-15T00:55:13;21.10;;;9.30;;
33802;SDS011;20110;53.120;5.786;2023-04-15T00:57:39;19.85;;;8.82;;
33802;SDS011;20110;53.120;5.786;2023-04-15T01:00:05;30.63;;;9.55;;
33802;SDS011;20110;53.120;5.786;2023-04-15T01:02:38;15.10;;;9.27;;
33802;SDS011;20110;53.120;5.786;2023-04-15T01:05:05;21.00;;;10.20;;
33802;SDS011;20110;53.120;5.786;2023-04-15T01:07:32;28.88;;;9.63;;
33802;SDS011;20110;53.120;5.786;2023-04-15T01:09:58;25.15;;;10.05;;
33802;SDS011;20110;53.120;5.786;2023-04-15T01:12:25;16.17;;;8.70;;
33802;SDS011;20110;53.120;5.786;2023-04-15T01:14:55;20.30;;;9.15;;
33802;SDS011;20110;53.120;5.786;2023-04-15T01:17:21;32.88;;;10.25;;
33802;SDS011;20110;53.120;5.786;2023-04-15T01:19:49;27.95;;;9.13;;
33802;SDS011;20110;53.120;5.786;2023-04-15T01:22:16;18.55;;;9.38;;
33802;SDS011;20110;53.120;5.786;2023-04-15T01:24:49;18.98;;;9.60;;
33802;SDS011;20110;53.120;5.786;2023-04-15T01:27:26;20.40;;;9.20;;
33802;SDS011;20110;53.120;5.786;2023-04-15T01:29:52;24.65;;;9.70;;
33802;SDS011;20110;53.120;5.786;2023-04-15T01:32:18;19.75;;;9.82;;
33802;SDS011;20110;53.120;5.786;2023-04-15T01:34:44;22.00;;;9.00;;
33802;SDS011;20110;53.120;5.786;2023-04-15T01:37:10;16.75;;;9.48;;
33802;SDS011;20110;53.120;5.786;2023-04-15T01:39:37;28.27;;;10.55;;
33802;SDS011;20110;53.120;5.786;2023-04-15T01:42:03;17.25;;;9.80;;
33802;SDS011;20110;53.120;5.786;2023-04-15T01:44:29;15.40;;;10.43;;
33802;SDS011;20110;53.120;5.786;2023-04-15T01:46:55;22.75;;;10.63;;
33802;SDS011;20110;53.120;5.786;2023-04-15T01:49:20;19.13;;;11.43;;
33802;SDS011;20110;53.120;5.786;2023-04-15T01:51:46;34.97;;;12.55;;
33802;SDS011;20110;53.120;5.786;2023-04-15T01:54:12;24.83;;;12.30;;
33802;SDS011;20110;53.120;5.786;2023-04-15T01:56:38;25.85;;;10.88;;
33802;SDS011;20110;53.120;5.786;2023-04-15T01:59:04;24.13;;;10.90;;
33802;SDS011;20110;53.120;5.786;2023-04-15T02:01:30;37.15;;;11.90;;
33802;SDS011;20110;53.120;5.786;2023-04-15T02:03:56;24.45;;;11.27;;
33802;SDS011;20110;53.120;5.786;2023-04-15T02:06:22;31.58;;;11.75;;
33802;SDS011;20110;53.120;5.786;2023-04-15T02:08:48;25.02;;;12.73;;
33802;SDS011;20110;53.120;5.786;2023-04-15T02:11:15;28.15;;;13.05;;
33802;SDS011;20110;53.120;5.786;2023-04-15T02:13:41;32.25;;;12.65;;
33802;SDS011;20110;53.120;5.786;2023-04-15T02:16:16;24.88;;;12.57;;
33802;SDS011;20110;53.120;5.786;2023-04-15T02:18:47;40.88;;;13.90;;
33802;SDS011;20110;53.120;5.786;2023-04-15T02:21:13;26.85;;;13.63;;
33802;SDS011;20110;53.120;5.786;2023-04-15T02:23:39;28.52;;;14.55;;
33802;SDS011;20110;53.120;5.786;2023-04-15T02:26:05;41.13;;;15.73;;
33802;SDS011;20110;53.120;5.786;2023-04-15T02:28:32;33.95;;;15.15;;
33802;SDS011;20110;53.120;5.786;2023-04-15T02:30:57;36.38;;;16.30;;
33802;SDS011;20110;53.120;5.786;2023-04-15T02:33:23;34.72;;;14.88;;
33802;SDS011;20110;53.120;5.786;2023-04-15T02:35:49;31.50;;;15.57;;
33802;SDS011;20110;53.120;5.786;2023-04-15T02:38:17;37.22;;;15.05;;
33802;SDS011;20110;53.120;5.786;2023-04-15T02:40:43;35.50;;;13.85;;
33802;SDS011;20110;53.120;5.786;2023-04-15T02:43:08;32.40;;;15.65;;
33802;SDS011;20110;53.120;5.786;2023-04-15T02:45:34;33.08;;;14.73;;
33802;SDS011;20110;53.120;5.786;2023-04-15T02:48:00;34.25;;;14.40;;
33802;SDS011;20110;53.120;5.786;2023-04-15T02:50:30;37.40;;;15.25;;
33802;SDS011;20110;53.120;5.786;2023-04-15T02:52:56;31.38;;;13.30;;
33802;SDS011;20110;53.120;5.786;2023-04-15T02:55:21;37.75;;;14.20;;
33802;SDS011;20110;53.120;5.786;2023-04-15T02:57:47;40.17;;;14.02;;
33802;SDS011;20110;53.120;5.786;2023-04-15T03:00:13;38.72;;;14.85;;
33802;SDS011;20110;53.120;5.786;2023-04-15T03:02:40;36.33;;;15.02;;
33802;SDS011;20110;53.120;5.786;2023-04-15T03:05:10;28.80;;;14.20;;
33802;SDS011;20110;53.120;5.786;2023-04-15T03:07:37;30.23;;;14.50;;
33802;SDS011;20110;53.120;5.786;2023-04-15T03:10:05;30.98;;;15.20;;
33802;SDS011;20110;53.120;5.786;2023-04-15T03:12:32;39.45;;;15.55;;
33802;SDS011;20110;53.120;5.786;2023-04-15T03:14:58;38.70;;;16.38;;
33802;SDS011;20110;53.120;5.786;2023-04-15T03:17:26;33.88;;;16.63;;
33802;SDS011;20110;53.120;5.786;2023-04-15T03:19:51;43.78;;;18.88;;
33802;SDS011;20110;53.120;5.786;2023-04-15T03:22:17;48.65;;;18.17;;
33802;SDS011;20110;53.120;5.786;2023-04-15T03:24:43;43.08;;;15.57;;
33802;SDS011;20110;53.120;5.786;2023-04-15T03:27:09;36.72;;;17.00;;
33802;SDS011;20110;53.120;5.786;2023-04-15T03:29:35;46.30;;;16.85;;
33802;SDS011;20110;53.120;5.786;2023-04-15T03:32:01;36.55;;;17.02;;
33802;SDS011;20110;53.120;5.786;2023-04-15T03:34:27;54.50;;;18.52;;
33802;SDS011;20110;53.120;5.786;2023-04-15T03:36:53;39.00;;;14.82;;
33802;SDS011;20110;53.120;5.786;2023-04-15T03:39:20;39.90;;;15.57;;
33802;SDS011;20110;53.120;5.786;2023-04-15T03:41:46;35.42;;;14.45;;
33802;SDS011;20110;53.120;5.786;2023-04-15T03:44:12;37.42;;;14.25;;
33802;SDS011;20110;53.120;5.786;2023-04-15T03:46:37;30.63;;;15.07;;
33802;SDS011;20110;53.120;5.786;2023-04-15T03:49:05;41.80;;;15.25;;
33802;SDS011;20110;53.120;5.786;2023-04-15T03:51:31;36.47;;;16.08;;
33802;SDS011;20110;53.120;5.786;2023-04-15T03:53:57;49.97;;;17.20;;
33802;SDS011;20110;53.120;5.786;2023-04-15T03:56:23;39.25;;;16.52;;
33802;SDS011;20110;53.120;5.786;2023-04-15T03:58:49;40.88;;;15.32;;
33802;SDS011;20110;53.120;5.786;2023-04-15T04:01:15;42.50;;;15.15;;
33802;SDS011;20110;53.120;5.786;2023-04-15T04:03:41;40.10;;;16.23;;
33802;SDS011;20110;53.120;5.786;2023-04-15T04:06:07;36.42;;;16.92;;
33802;SDS011;20110;53.120;5.786;2023-04-15T04:08:33;44.22;;;17.75;;
33802;SDS011;20110;53.120;5.786;2023-04-15T04:10:58;52.25;;;17.17;;
33802;SDS011;20110;53.120;5.786;2023-04-15T04:13:24;47.95;;;15.68;;
33802;SDS011;20110;53.120;5.786;2023-04-15T04:15:50;48.60;;;18.40;;
33802;SDS011;20110;53.120;5.786;2023-04-15T04:18:16;41.25;;;18.40;;
33802;SDS011;20110;53.120;5.786;2023-04-15T04:20:42;51.80;;;17.58;;
33802;SDS011;20110;53.120;5.786;2023-04-15T04:23:08;47.28;;;17.23;;
33802;SDS011;20110;53.120;5.786;2023-04-15T04:25:33;42.58;;;17.58;;
33802;SDS011;20110;53.120;5.786;2023-04-15T04:27:59;47.42;;;18.70;;
33802;SDS011;20110;53.120;5.786;2023-04-15T04:30:25;47.67;;;18.90;;
33802;SDS011;20110;53.120;5.786;2023-04-15T04:32:51;46.92;;;17.63;;
33802;SDS011;20110;53.120;5.786;2023-04-15T04:35:17;42.65;;;16.42;;
33802;SDS011;20110;53.120;5.786;2023-04-15T04:37:43;54.67;;;19.83;;
33802;SDS011;20110;53.120;5.786;2023-04-15T04:40:08;50.70;;;19.67;;
33802;SDS011;20110;53.120;5.786;2023-04-15T04:42:35;49.63;;;19.35;;
33802;SDS011;20110;53.120;5.786;2023-04-15T04:45:01;52.15;;;18.83;;
33802;SDS011;20110;53.120;5.786;2023-04-15T04:47:27;46.30;;;18.60;;
33802;SDS011;20110;53.120;5.786;2023-04-15T04:49:53;43.47;;;18.88;;
33802;SDS011;20110;53.120;5.786;2023-04-15T04:52:19;49.97;;;19.40;;
33802;SDS011;20110;53.120;5.786;2023-04-15T04:54:44;60.97;;;20.13;;
33802;SDS011;20110;53.120;5.786;2023-04-15T04:57:11;59.88;;;19.90;;
33802;SDS011;20110;53.120;5.786;2023-04-15T04:59:37;51.30;;;18.80;;
33802;SDS011;20110;53.120;5.786;2023-04-15T05:02:04;56.88;;;21.00;;
33802;SDS011;20110;53.120;5.786;2023-04-15T05:04:30;56.13;;;20.98;;
33802;SDS011;20110;53.120;5.786;2023-04-15T05:06:56;52.60;;;20.38;;
33802;SDS011;20110;53.120;5.786;2023-04-15T05:09:23;51.45;;;21.95;;
33802;SDS011;20110;53.120;5.786;2023-04-15T05:11:50;57.97;;;22.27;;
33802;SDS011;20110;53.120;5.786;2023-04-15T05:14:16;60.70;;;22.27;;
33802;SDS011;20110;53.120;5.786;2023-04-15T05:16:41;55.67;;;22.25;;
33802;SDS011;20110;53.120;5.786;2023-04-15T05:19:07;47.65;;;18.85;;
33802;SDS011;20110;53.120;5.786;2023-04-15T05:21:33;56.28;;;19.95;;
33802;SDS011;20110;53.120;5.786;2023-04-15T05:23:59;46.15;;;19.38;;
33802;SDS011;20110;53.120;5.786;2023-04-15T05:26:25;43.70;;;19.58;;
33802;SDS011;20110;53.120;5.786;2023-04-15T05:28:51;56.17;;;20.17;;
33802;SDS011;20110;53.120;5.786;2023-04-15T05:31:17;52.10;;;19.67;;
33802;SDS011;20110;53.120;5.786;2023-04-15T05:33:43;53.75;;;20.23;;
33802;SDS011;20110;53.120;5.786;2023-04-15T05:36:09;52.92;;;21.10;;
33802;SDS011;20110;53.120;5.786;2023-04-15T05:38:36;50.65;;;19.10;;
33802;SDS011;20110;53.120;5.786;2023-04-15T05:41:02;54.47;;;20.08;;
33802;SDS011;20110;53.120;5.786;2023-04-15T05:43:29;48.70;;;20.30;;
33802;SDS011;20110;53.120;5.786;2023-04-15T05:45:55;58.97;;;20.38;;
33802;SDS011;20110;53.120;5.786;2023-04-15T05:48:21;56.97;;;21.92;;
33802;SDS011;20110;53.120;5.786;2023-04-15T05:50:47;57.33;;;21.77;;
33802;SDS011;20110;53.120;5.786;2023-04-15T05:53:13;55.42;;;23.63;;
33802;SDS011;20110;53.120;5.786;2023-04-15T05:55:39;53.33;;;23.13;;
33802;SDS011;20110;53.120;5.786;2023-04-15T05:58:05;62.83;;;24.83;;
33802;SDS011;20110;53.120;5.786;2023-04-15T06:00:30;47.80;;;23.60;;
33802;SDS011;20110;53.120;5.786;2023-04-15T06:02:56;64.70;;;24.00;;
33802;SDS011;20110;53.120;5.786;2023-04-15T06:05:23;60.30;;;24.00;;
33802;SDS011;20110;53.120;5.786;2023-04-15T06:07:49;49.10;;;22.50;;
33802;SDS011;20110;53.120;5.786;2023-04-15T06:10:15;49.95;;;22.05;;
33802;SDS011;20110;53.120;5.786;2023-04-15T06:12:41;62.13;;;23.52;;
33802;SDS011;20110;53.120;5.786;2023-04-15T06:15:07;48.08;;;20.65;;
33802;SDS011;20110;53.120;5.786;2023-04-15T06:17:34;42.55;;;20.98;;
33802;SDS011;20110;53.120;5.786;2023-04-15T06:20:02;42.55;;;20.00;;
33802;SDS011;20110;53.120;5.786;2023-04-15T06:22:29;37.72;;;19.55;;
33802;SDS011;20110;53.120;5.786;2023-04-15T06:24:55;38.10;;;18.65;;
33802;SDS011;20110;53.120;5.786;2023-04-15T06:27:20;39.22;;;18.27;;
33802;SDS011;20110;53.120;5.786;2023-04-15T06:29:48;35.15;;;16.85;;
33802;SDS011;20110;53.120;5.786;2023-04-15T06:32:13;30.30;;;15.68;;
33802;SDS011;20110;53.120;5.786;2023-04-15T06:34:39;29.20;;;15.75;;
33802;SDS011;20110;53.120;5.786;2023-04-15T06:37:05;28.63;;;15.80;;
33802;SDS011;20110;53.120;5.786;2023-04-15T06:39:31;28.05;;;14.60;;
33802;SDS011;20110;53.120;5.786;2023-04-15T06:41:58;27.75;;;14.60;;
33802;SDS011;20110;53.120;5.786;2023-04-15T06:44:24;32.30;;;13.98;;
33802;SDS011;20110;53.120;5.786;2023-04-15T06:46:50;31.90;;;13.63;;
33802;SDS011;20110;53.120;5.786;2023-04-15T06:49:16;26.05;;;13.43;;
33802;SDS011;20110;53.120;5.786;2023-04-15T06:51:41;26.10;;;13.70;;
33802;SDS011;20110;53.120;5.786;2023-04-15T06:54:07;18.75;;;11.60;;
33802;SDS011;20110;53.120;5.786;2023-04-15T06:56:33;23.73;;;11.77;;
33802;SDS011;20110;53.120;5.786;2023-04-15T06:59:00;22.88;;;12.38;;
33802;SDS011;20110;53.120;5.786;2023-04-15T07:01:26;20.33;;;11.05;;
33802;SDS011;20110;53.120;5.786;2023-04-15T07:03:52;17.30;;;10.23;;
33802;SDS011;20110;53.120;5.786;2023-04-15T07:06:18;18.83;;;11.52;;
33802;SDS011;20110;53.120;5.786;2023-04-15T07:08:46;14.45;;;9.27;;
33802;SDS011;20110;53.120;5.786;2023-04-15T07:11:11;16.33;;;10.20;;
33802;SDS011;20110;53.120;5.786;2023-04-15T07:13:38;20.67;;;10.80;;
33802;SDS011;20110;53.120;5.786;2023-04-15T07:16:04;17.10;;;10.13;;
33802;SDS011;20110;53.120;5.786;2023-04-15T07:18:30;13.98;;;9.82;;
33802;SDS011;20110;53.120;5.786;2023-04-15T07:20:56;20.95;;;9.45;;
33802;SDS011;20110;53.120;5.786;2023-04-15T07:23:22;19.77;;;10.52;;
33802;SDS011;20110;53.120;5.786;2023-04-15T07:25:48;19.25;;;10.60;;
33802;SDS011;20110;53.120;5.786;2023-04-15T07:28:16;17.13;;;11.25;;
33802;SDS011;20110;53.120;5.786;2023-04-15T07:30:42;20.20;;;10.63;;
33802;SDS011;20110;53.120;5.786;2023-04-15T07:33:08;16.20;;;8.75;;
33802;SDS011;20110;53.120;5.786;2023-04-15T07:35:34;16.08;;;9.00;;
33802;SDS011;20110;53.120;5.786;2023-04-15T07:37:59;12.05;;;8.38;;
33802;SDS011;20110;53.120;5.786;2023-04-15T07:40:25;16.17;;;8.73;;
33802;SDS011;20110;53.120;5.786;2023-04-15T07:42:52;12.25;;;6.95;;
33802;SDS011;20110;53.120;5.786;2023-04-15T07:45:18;8.80;;;6.25;;
33802;SDS011;20110;53.120;5.786;2023-04-15T07:47:45;12.73;;;6.75;;
33802;SDS011;20110;53.120;5.786;2023-04-15T07:50:11;8.02;;;5.35;;
33802;SDS011;20110;53.120;5.786;2023-04-15T07:52:37;7.60;;;5.47;;
33802;SDS011;20110;53.120;5.786;2023-04-15T07:55:06;5.93;;;4.35;;
33802;SDS011;20110;53.120;5.786;2023-04-15T07:57:35;8.95;;;4.18;;
33802;SDS011;20110;53.120;5.786;2023-04-15T08:00:02;7.45;;;3.72;;
33802;SDS011;20110;53.120;5.786;2023-04-15T08:02:31;6.00;;;3.88;;
33802;SDS011;20110;53.120;5.786;2023-04-15T08:04:57;3.40;;;3.10;;
33802;SDS011;20110;53.120;5.786;2023-04-15T08:07:24;9.30;;;3.80;;
33802;SDS011;20110;53.120;5.786;2023-04-15T08:09:50;9.00;;;4.20;;
33802;SDS011;20110;53.120;5.786;2023-04-15T08:12:16;6.82;;;3.35;;
33802;SDS011;20110;53.120;5.786;2023-04-15T08:14:42;7.63;;;4.00;;
33802;SDS011;20110;53.120;5.786;2023-04-15T08:17:07;6.43;;;4.25;;
33802;SDS011;20110;53.120;5.786;2023-04-15T08:19:33;6.88;;;4.43;;
33802;SDS011;20110;53.120;5.786;2023-04-15T08:21:59;5.85;;;3.58;;
33802;SDS011;20110;53.120;5.786;2023-04-15T08:24:25;3.88;;;3.42;;
33802;SDS011;20110;53.120;5.786;2023-04-15T08:26:51;4.10;;;3.42;;
33802;SDS011;20110;53.120;5.786;2023-04-15T08:29:17;7.22;;;3.55;;
33802;SDS011;20110;53.120;5.786;2023-04-15T08:31:43;4.22;;;3.05;;
33802;SDS011;20110;53.120;5.786;2023-04-15T08:34:11;3.00;;;2.20;;
33802;SDS011;20110;53.120;5.786;2023-04-15T08:36:37;3.63;;;3.03;;
33802;SDS011;20110;53.120;5.786;2023-04-15T08:39:03;5.50;;;3.33;;
33802;SDS011;20110;53.120;5.786;2023-04-15T08:44:10;3.25;;;2.90;;
33802;SDS011;20110;53.120;5.786;2023-04-15T08:46:37;5.22;;;2.83;;
33802;SDS011;20110;53.120;5.786;2023-04-15T08:49:07;4.72;;;2.95;;
33802;SDS011;20110;53.120;5.786;2023-04-15T08:51:37;6.03;;;3.47;;
33802;SDS011;20110;53.120;5.786;2023-04-15T08:54:04;7.43;;;3.83;;
33802;SDS011;20110;53.120;5.786;2023-04-15T08:56:32;8.90;;;3.25;;
33802;SDS011;20110;53.120;5.786;2023-04-15T08:58:59;10.73;;;5.05;;
33802;SDS011;20110;53.120;5.786;2023-04-15T09:01:26;4.55;;;3.45;;
33802;SDS011;20110;53.120;5.786;2023-04-15T09:03:53;9.07;;;4.55;;
33802;SDS011;20110;53.120;5.786;2023-04-15T09:06:21;9.38;;;3.80;;
33802;SDS011;20110;53.120;5.786;2023-04-15T09:08:48;7.63;;;3.70;;
33802;SDS011;20110;53.120;5.786;2023-04-15T09:11:15;6.20;;;4.60;;
33802;SDS011;20110;53.120;5.786;2023-04-15T09:13:42;7.97;;;4.03;;
33802;SDS011;20110;53.120;5.786;2023-04-15T09:16:10;6.25;;;3.80;;
33802;SDS011;20110;53.120;5.786;2023-04-15T09:18:37;5.88;;;3.65;;
33802;SDS011;20110;53.120;5.786;2023-04-15T09:21:07;4.78;;;3.53;;
33802;SDS011;20110;53.120;5.786;2023-04-15T09:23:38;6.63;;;3.75;;
33802;SDS011;20110;53.120;5.786;2023-04-15T09:26:18;2.92;;;2.72;;
33802;SDS011;20110;53.120;5.786;2023-04-15T09:28:44;5.68;;;3.45;;
33802;SDS011;20110;53.120;5.786;2023-04-15T09:31:10;4.30;;;3.75;;
33802;SDS011;20110;53.120;5.786;2023-04-15T09:33:36;4.90;;;2.47;;
33802;SDS011;20110;53.120;5.786;2023-04-15T09:36:21;3.55;;;2.72;;
33802;SDS011;20110;53.120;5.786;2023-04-15T09:38:54;7.00;;;3.22;;
33802;SDS011;20110;53.120;5.786;2023-04-15T09:41:24;5.63;;;2.45;;
33802;SDS011;20110;53.120;5.786;2023-04-15T09:43:50;4.20;;;2.45;;
33802;SDS011;20110;53.120;5.786;2023-04-15T09:46:17;2.50;;;2.15;;
33802;SDS011;20110;53.120;5.786;2023-04-15T09:48:43;7.70;;;2.83;;
33802;SDS011;20110;53.120;5.786;2023-04-15T09:51:09;4.20;;;2.03;;
33802;SDS011;20110;53.120;5.786;2023-04-15T09:53:35;5.05;;;2.75;;
33802;SDS011;20110;53.120;5.786;2023-04-15T09:56:04;7.32;;;2.67;;
33802;SDS011;20110;53.120;5.786;2023-04-15T09:58:33;4.18;;;2.40;;
33802;SDS011;20110;53.120;5.786;2023-04-15T10:01:01;2.17;;;1.85;;
33802;SDS011;20110;53.120;5.786;2023-04-15T10:03:30;2.92;;;2.70;;
33802;SDS011;20110;53.120;5.786;2023-04-15T10:06:00;3.95;;;2.53;;
33802;SDS011;20110;53.120;5.786;2023-04-15T10:08:29;3.33;;;2.50;;
33802;SDS011;20110;53.120;5.786;2023-04-15T10:10:57;4.40;;;2.60;;
33802;SDS011;20110;53.120;5.786;2023-04-15T10:13:28;2.67;;;1.75;;
33802;SDS011;20110;53.120;5.786;2023-04-15T10:16:04;3.70;;;1.63;;
33802;SDS011;20110;53.120;5.786;2023-04-15T10:18:46;2.35;;;2.10;;
33802;SDS011;20110;53.120;5.786;2023-04-15T10:21:18;2.30;;;2.10;;
33802;SDS011;20110;53.120;5.786;2023-04-15T10:23:46;4.07;;;1.30;;
33802;SDS011;20110;53.120;5.786;2023-04-15T10:26:13;1.80;;;1.67;;
33802;SDS011;20110;53.120;5.786;2023-04-15T10:28:41;4.68;;;1.60;;
33802;SDS011;20110;53.120;5.786;2023-04-15T10:31:12;4.32;;;1.95;;
33802;SDS011;20110;53.120;5.786;2023-04-15T10:33:40;2.13;;;1.65;;
33802;SDS011;20110;53.120;5.786;2023-04-15T10:36:09;3.92;;;1.60;;
33802;SDS011;20110;53.120;5.786;2023-04-15T10:38:39;5.97;;;2.22;;
33802;SDS011;20110;53.120;5.786;2023-04-15T10:41:15;3.90;;;2.08;;
33802;SDS011;20110;53.120;5.786;2023-04-15T10:44:06;3.15;;;1.30;;
33802;SDS011;20110;53.120;5.786;2023-04-15T10:46:36;2.58;;;2.38;;
33802;SDS011;20110;53.120;5.786;2023-04-15T10:49:23;5.13;;;1.65;;
33802;SDS011;20110;53.120;5.786;2023-04-15T10:51:51;4.43;;;2.22;;
33802;SDS011;20110;53.120;5.786;2023-04-15T10:57:36;5.35;;;2.45;;
33802;SDS011;20110;53.120;5.786;2023-04-15T11:02:45;5.00;;;1.58;;
33802;SDS011;20110;53.120;5.786;2023-04-15T11:08:16;1.23;;;1.00;;
33802;SDS011;20110;53.120;5.786;2023-04-15T11:15:35;1.38;;;1.27;;
33802;SDS011;20110;53.120;5.786;2023-04-15T11:18:13;6.35;;;1.75;;
33802;SDS011;20110;53.120;5.786;2023-04-15T11:20:40;6.10;;;1.70;;
33802;SDS011;20110;53.120;5.786;2023-04-15T11:23:09;5.88;;;2.38;;
33802;SDS011;20110;53.120;5.786;2023-04-15T11:25:35;2.63;;;1.42;;
33802;SDS011;20110;53.120;5.786;2023-04-15T11:28:02;2.28;;;1.70;;
33802;SDS011;20110;53.120;5.786;2023-04-15T11:30:29;5.75;;;1.90;;
33802;SDS011;20110;53.120;5.786;2023-04-15T11:33:02;4.03;;;2.58;;
33802;SDS011;20110;53.120;5.786;2023-04-15T11:35:34;4.53;;;2.00;;
33802;SDS011;20110;53.120;5.786;2023-04-15T11:38:04;5.15;;;3.42;;
33802;SDS011;20110;53.120;5.786;2023-04-15T11:40:34;3.42;;;1.80;;
33802;SDS011;20110;53.120;5.786;2023-04-15T11:45:34;8.98;;;2.25;;
33802;SDS011;20110;53.120;5.786;2023-04-15T11:48:12;5.10;;;2.30;;
33802;SDS011;20110;53.120;5.786;2023-04-15T11:50:39;5.22;;;1.90;;
33802;SDS011;20110;53.120;5.786;2023-04-15T11:53:06;7.32;;;2.10;;
33802;SDS011;20110;53.120;5.786;2023-04-15T11:55:46;1.83;;;1.15;;
33802;SDS011;20110;53.120;5.786;2023-04-15T11:58:21;1.63;;;1.02;;
33802;SDS011;20110;53.120;5.786;2023-04-15T12:03:57;4.47;;;1.55;;
33802;SDS011;20110;53.120;5.786;2023-04-15T12:06:22;2.85;;;1.55;;
33802;SDS011;20110;53.120;5.786;2023-04-15T12:17:09;3.03;;;1.55;;
33802;SDS011;20110;53.120;5.786;2023-04-15T12:19:41;8.32;;;2.60;;
33802;SDS011;20110;53.120;5.786;2023-04-15T12:22:15;6.53;;;1.45;;
33802;SDS011;20110;53.120;5.786;2023-04-15T12:24:42;20.38;;;3.45;;
33802;SDS011;20110;53.120;5.786;2023-04-15T12:27:30;5.95;;;1.95;;
33802;SDS011;20110;53.120;5.786;2023-04-15T12:30:05;3.55;;;1.65;;
33802;SDS011;20110;53.120;5.786;2023-04-15T12:32:35;5.57;;;1.73;;
33802;SDS011;20110;53.120;5.786;2023-04-15T12:35:01;4.13;;;1.73;;
33802;SDS011;20110;53.120;5.786;2023-04-15T12:37:27;12.32;;;2.08;;
33802;SDS011;20110;53.120;5.786;2023-04-15T12:39:53;4.63;;;2.05;;
33802;SDS011;20110;53.120;5.786;2023-04-15T12:42:19;5.50;;;1.58;;
33802;SDS011;20110;53.120;5.786;2023-04-15T12:44:46;2.13;;;1.90;;
33802;SDS011;20110;53.120;5.786;2023-04-15T12:47:12;1.83;;;1.27;;
33802;SDS011;20110;53.120;5.786;2023-04-15T12:49:38;3.22;;;1.60;;
33802;SDS011;20110;53.120;5.786;2023-04-15T12:52:05;5.03;;;1.98;;
33802;SDS011;20110;53.120;5.786;2023-04-15T12:54:31;7.60;;;1.70;;
33802;SDS011;20110;53.120;5.786;2023-04-15T12:56:59;7.35;;;2.08;;
33802;SDS011;20110;53.120;5.786;2023-04-15T12:59:33;6.72;;;1.83;;
33802;SDS011;20110;53.120;5.786;2023-04-15T13:02:02;9.75;;;2.50;;
33802;SDS011;20110;53.120;5.786;2023-04-15T13:04:28;6.72;;;2.28;;
33802;SDS011;20110;53.120;5.786;2023-04-15T13:06:54;7.13;;;2.45;;
33802;SDS011;20110;53.120;5.786;2023-04-15T13:09:20;6.55;;;3.92;;
33802;SDS011;20110;53.120;5.786;2023-04-15T13:11:46;3.90;;;1.65;;
33802;SDS011;20110;53.120;5.786;2023-04-15T13:14:13;20.75;;;2.45;;
33802;SDS011;20110;53.120;5.786;2023-04-15T13:16:39;9.80;;;3.60;;
33802;SDS011;20110;53.120;5.786;2023-04-15T13:19:05;4.30;;;2.28;;
33802;SDS011;20110;53.120;5.786;2023-04-15T13:21:31;12.82;;;3.10;;
33802;SDS011;20110;53.120;5.786;2023-04-15T13:23:59;10.98;;;2.83;;
33802;SDS011;20110;53.120;5.786;2023-04-15T13:26:25;5.32;;;4.85;;
33802;SDS011;20110;53.120;5.786;2023-04-15T13:28:51;9.07;;;4.72;;
33802;SDS011;20110;53.120;5.786;2023-04-15T13:31:16;2.35;;;1.38;;
33802;SDS011;20110;53.120;5.786;2023-04-15T13:33:42;4.80;;;3.33;;
33802;SDS011;20110;53.120;5.786;2023-04-15T13:36:08;2.92;;;1.45;;
33802;SDS011;20110;53.120;5.786;2023-04-15T13:38:34;5.57;;;1.88;;
33802;SDS011;20110;53.120;5.786;2023-04-15T13:41:00;10.15;;;1.90;;
33802;SDS011;20110;53.120;5.786;2023-04-15T13:43:25;8.70;;;1.92;;
33802;SDS011;20110;53.120;5.786;2023-04-15T13:45:51;5.82;;;2.03;;
33802;SDS011;20110;53.120;5.786;2023-04-15T13:48:18;6.13;;;2.55;;
33802;SDS011;20110;53.120;5.786;2023-04-15T13:50:44;6.03;;;2.22;;
33802;SDS011;20110;53.120;5.786;2023-04-15T13:53:10;8.77;;;1.60;;
33802;SDS011;20110;53.120;5.786;2023-04-15T13:55:37;5.13;;;1.95;;
33802;SDS011;20110;53.120;5.786;2023-04-15T13:58:09;12.05;;;2.17;;
33802;SDS011;20110;53.120;5.786;2023-04-15T14:00:36;5.57;;;1.15;;
33802;SDS011;20110;53.120;5.786;2023-04-15T14:03:02;4.13;;;1.02;;
33802;SDS011;20110;53.120;5.786;2023-04-15T14:05:29;2.83;;;1.30;;
33802;SDS011;20110;53.120;5.786;2023-04-15T14:07:54;8.77;;;1.10;;
33802;SDS011;20110;53.120;5.786;2023-04-15T14:10:20;3.78;;;2.08;;
33802;SDS011;20110;53.120;5.786;2023-04-15T14:12:46;2.28;;;0.90;;
33802;SDS011;20110;53.120;5.786;2023-04-15T14:15:12;13.63;;;2.10;;
33802;SDS011;20110;53.120;5.786;2023-04-15T14:17:38;9.63;;;2.95;;
33802;SDS011;20110;53.120;5.786;2023-04-15T14:20:06;6.05;;;1.65;;
33802;SDS011;20110;53.120;5.786;2023-04-15T14:22:33;10.63;;;1.30;;
33802;SDS011;20110;53.120;5.786;2023-04-15T14:24:59;13.80;;;3.42;;
33802;SDS011;20110;53.120;5.786;2023-04-15T14:27:25;15.02;;;2.38;;
33802;SDS011;20110;53.120;5.786;2023-04-15T14:29:52;5.03;;;1.35;;
33802;SDS011;20110;53.120;5.786;2023-04-15T14:32:18;16.25;;;2.10;;
33802;SDS011;20110;53.120;5.786;2023-04-15T14:34:44;11.88;;;2.85;;
33802;SDS011;20110;53.120;5.786;2023-04-15T14:37:10;8.45;;;1.58;;
33802;SDS011;20110;53.120;5.786;2023-04-15T14:39:36;11.00;;;1.92;;
33802;SDS011;20110;53.120;5.786;2023-04-15T14:42:03;11.07;;;1.90;;
33802;SDS011;20110;53.120;5.786;2023-04-15T14:44:29;5.32;;;2.28;;
33802;SDS011;20110;53.120;5.786;2023-04-15T14:46:54;11.63;;;1.90;;
33802;SDS011;20110;53.120;5.786;2023-04-15T14:49:20;6.00;;;1.92;;
33802;SDS011;20110;53.120;5.786;2023-04-15T14:51:46;6.45;;;1.60;;
33802;SDS011;20110;53.120;5.786;2023-04-15T14:54:12;16.85;;;1.75;;
33802;SDS011;20110;53.120;5.786;2023-04-15T14:56:38;5.75;;;1.80;;
33802;SDS011;20110;53.120;5.786;2023-04-15T14:59:04;3.30;;;1.38;;
33802;SDS011;20110;53.120;5.786;2023-04-15T15:01:29;7.13;;;1.67;;
33802;SDS011;20110;53.120;5.786;2023-04-15T15:03:55;8.95;;;2.17;;
33802;SDS011;20110;53.120;5.786;2023-04-15T15:06:21;8.48;;;1.90;;